Time;durP1;ratioP1;P1;durP2;ratioP2;P2;SDS_P1;SDS_P2;PMS_P1;PMS_P2;Temp;Humidity;BMP_temperature;BMP_pressure;BME280_temperature;BME280_humidity;BME280_pressure;Samples;Min_cycle;Max_cycle;Signal;HPM_P1;HPM_P2
2023/01/11 00:01:48;;;;;;;7.63;1.33;;;;;;;7.89;76.06;100671.59;5026865;28;20221;-71
2023/01/11 00:04:16;;;;;;;12.90;1.50;;;;;;;7.86;76.44;100662.13;5027779;28;20375;-69
2023/01/11 00:06:45;;;;;;;7.03;1.40;;;;;;;7.88;75.89;100654.94;5023084;28;20254;-72
2023/01/11 00:09:14;;;;;;;7.90;1.63;;;;;;;7.92;75.30;100640.50;5027269;28;20210;-72
2023/01/11 00:11:43;;;;;;;8.27;1.43;;;;;;;7.94;74.77;100649.13;5026929;28;20310;-71
2023/01/11 00:14:11;;;;;;;10.13;1.80;;;;;;;7.96;74.70;100642.88;5030428;28;20214;-70
2023/01/11 00:16:39;;;;;;;6.97;1.50;;;;;;;7.97;74.63;100652.47;5027364;28;20204;-67
2023/01/11 00:19:07;;;;;;;6.90;1.60;;;;;;;7.90;75.20;100641.59;5025977;28;20222;-70
2023/01/11 00:21:35;;;;;;;6.97;1.50;;;;;;;7.99;74.98;100645.28;5024726;28;20217;-70
2023/01/11 00:24:02;;;;;;;10.17;1.30;;;;;;;8.04;74.47;100628.06;5027797;28;20226;-72
2023/01/11 00:26:30;;;;;;;6.10;1.67;;;;;;;8.14;73.90;100629.00;5025416;28;20673;-69
2023/01/11 00:28:59;;;;;;;5.93;1.40;;;;;;;8.10;73.98;100630.19;5028958;28;20236;-70
2023/01/11 00:31:27;;;;;;;4.00;1.40;;;;;;;8.11;73.98;100628.41;5028672;28;20225;-72
2023/01/11 00:33:55;;;;;;;6.07;1.30;;;;;;;8.09;73.66;100630.34;5030897;28;20611;-73
2023/01/11 00:36:23;;;;;;;8.23;1.83;;;;;;;8.15;73.69;100620.09;5032577;28;20222;-72
2023/01/11 00:38:54;;;;;;;7.33;1.23;;;;;;;8.16;73.97;100620.94;5030869;28;20217;-71
2023/01/11 00:49:42;;;;;;;4.90;1.50;;;;;;;8.23;74.79;100600.97;5027930;28;20223;-70
2023/01/11 00:52:10;;;;;;;9.97;2.00;;;;;;;8.23;75.55;100599.16;5031522;28;20274;-69
2023/01/11 00:54:39;;;;;;;7.67;1.50;;;;;;;8.24;76.71;100598.19;5027165;28;20222;-71
2023/01/11 00:57:08;;;;;;;7.70;1.33;;;;;;;8.21;78.31;100603.72;5031373;28;20204;-69
2023/01/11 00:59:39;;;;;;;3.73;1.30;;;;;;;8.18;79.65;100595.25;5027209;28;20225;-70
2023/01/11 01:02:07;;;;;;;7.30;1.63;;;;;;;8.17;79.99;100604.13;5025682;28;20215;-70
2023/01/11 01:04:35;;;;;;;4.10;1.27;;;;;;;8.14;80.41;100601.72;5026910;28;20271;-69
2023/01/11 01:07:06;;;;;;;5.13;1.20;;;;;;;8.11;81.01;100591.41;5026865;28;20241;-70
2023/01/11 01:15:23;;;;;;;4.67;1.93;;;;;;;8.17;80.81;100583.84;5002801;28;20302;-71
2023/01/11 01:17:53;;;;;;;5.70;1.70;;;;;;;8.14;81.22;100586.72;5026768;28;20242;-72
2023/01/11 01:20:44;;;;;;;3.87;1.40;;;;;;;8.16;80.91;100576.03;5026325;28;20747;-70
2023/01/11 01:23:12;;;;;;;8.07;1.57;;;;;;;8.20;80.16;100585.34;5014988;28;20207;-72
2023/01/11 01:25:40;;;;;;;7.97;1.80;;;;;;;8.27;79.66;100581.22;5027039;28;20538;-72
2023/01/11 01:28:15;;;;;;;5.80;1.30;;;;;;;8.19;80.23;100573.94;5024579;28;20697;-72
2023/01/11 01:30:50;;;;;;;5.43;1.60;;;;;;;8.26;79.61;100580.41;5022976;28;20320;-72
2023/01/11 01:33:17;;;;;;;6.07;1.50;;;;;;;8.28;79.48;100575.81;5024472;28;20211;-70
2023/01/11 01:35:45;;;;;;;4.53;1.50;;;;;;;8.21;79.71;100577.31;5022052;28;20304;-69
2023/01/11 01:38:13;;;;;;;7.63;1.43;;;;;;;8.24;79.47;100568.28;5025665;28;20214;-69
2023/01/11 01:40:41;;;;;;;6.43;1.40;;;;;;;8.28;79.21;100577.63;5026780;28;21233;-71
2023/01/11 01:43:11;;;;;;;8.80;1.80;;;;;;;8.30;78.99;100580.97;5022521;28;20326;-73
2023/01/11 01:45:40;;;;;;;5.30;1.70;;;;;;;8.43;78.20;100568.44;5024551;28;20227;-70
2023/01/11 01:48:12;;;;;;;13.97;3.13;;;;;;;8.42;78.60;100574.69;5025985;28;20297;-72
2023/01/11 01:50:45;;;;;;;6.77;1.50;;;;;;;8.37;79.97;100574.22;5023911;28;20212;-69
2023/01/11 01:53:18;;;;;;;4.07;1.30;;;;;;;8.34;80.40;100571.88;5023975;28;20226;-72
2023/01/11 01:55:51;;;;;;;9.07;2.13;;;;;;;8.30;80.95;100575.69;5024825;28;20211;-71
2023/01/11 01:58:23;;;;;;;5.33;1.23;;;;;;;8.35;80.55;100575.34;5023927;28;22324;-68
2023/01/11 02:00:51;;;;;;;5.73;1.63;;;;;;;8.41;80.06;100573.00;5026816;28;20243;-71
2023/01/11 02:03:25;;;;;;;5.17;1.53;;;;;;;8.45;79.92;100568.28;5024175;28;20247;-70
2023/01/11 02:05:54;;;;;;;3.27;1.30;;;;;;;8.48;79.86;100568.03;5024410;28;20200;-69
2023/01/11 02:08:29;;;;;;;3.17;1.40;;;;;;;8.45;80.70;100569.13;5024220;28;20563;-72
2023/01/11 02:10:57;;;;;;;3.77;1.23;;;;;;;8.46;81.23;100569.94;5024135;28;20219;-69
2023/01/11 02:13:25;;;;;;;6.23;1.13;;;;;;;8.42;81.73;100579.13;5026686;28;20221;-70
2023/01/11 02:16:07;;;;;;;5.27;1.43;;;;;;;8.46;82.26;100576.06;5026694;28;20207;-71
2023/01/11 02:18:38;;;;;;;4.93;1.07;;;;;;;8.51;82.82;100573.91;5023578;28;20236;-70
2023/01/11 02:21:21;;;;;;;5.47;1.33;;;;;;;8.47;84.13;100567.19;5026603;28;20219;-71
2023/01/11 02:24:09;;;;;;;3.70;1.93;;;;;;;8.42;85.09;100565.91;5026177;28;20223;-71
2023/01/11 02:27:16;;;;;;;4.83;1.50;;;;;;;8.44;85.50;100558.69;5026943;28;20539;-72
2023/01/11 02:29:52;;;;;;;3.47;1.17;;;;;;;8.44;85.51;100556.91;5028935;28;20292;-69
2023/01/11 02:32:27;;;;;;;4.30;1.20;;;;;;;8.42;85.79;100556.19;5023556;28;20212;-70
2023/01/11 02:35:04;;;;;;;3.17;1.00;;;;;;;8.46;85.79;100544.38;5024069;28;20207;-71
2023/01/11 02:37:41;;;;;;;5.80;1.70;;;;;;;8.45;86.08;100536.56;5024162;28;20206;-68
2023/01/11 02:40:16;;;;;;;7.77;1.17;;;;;;;8.39;86.36;100543.22;5023215;28;21442;-70
2023/01/11 02:45:48;;;;;;;5.73;1.00;;;;;;;8.40;87.27;100525.56;5021096;28;20216;-68
2023/01/11 02:48:23;;;;;;;2.40;0.90;;;;;;;8.36;88.28;100527.63;5025057;28;20696;-72
2023/01/11 02:50:58;;;;;;;4.73;1.43;;;;;;;8.41;88.22;100514.88;5027398;28;20212;-72
2023/01/11 02:53:31;;;;;;;4.13;1.10;;;;;;;8.41;88.54;100514.88;5023496;28;20204;-72
2023/01/11 02:56:05;;;;;;;3.53;1.00;;;;;;;8.46;88.35;100512.66;5024058;28;20234;-70
2023/01/11 02:58:37;;;;;;;3.03;1.00;;;;;;;8.47;88.46;100522.25;5023487;28;20241;-70
2023/01/11 03:01:07;;;;;;;3.77;1.00;;;;;;;8.50;88.32;100508.78;5023842;28;20238;-70
2023/01/11 03:03:35;;;;;;;8.97;1.40;;;;;;;8.59;88.37;100507.16;5025098;28;20242;-70
2023/01/11 03:06:06;;;;;;;8.37;1.10;;;;;;;8.62;88.01;100506.84;5029573;28;20210;-72
2023/01/11 03:08:52;;;;;;;7.80;1.30;;;;;;;8.61;88.15;100503.41;5026465;28;20219;-71
2023/01/11 03:14:20;;;;;;;4.13;1.00;;;;;;;8.68;87.89;100498.41;5028354;28;20216;-72
2023/01/11 03:16:55;;;;;;;6.93;1.53;;;;;;;8.68;88.22;100507.19;5025271;28;20231;-71
2023/01/11 03:19:34;;;;;;;2.83;1.10;;;;;;;8.73;87.85;100500.63;5023577;28;20210;-69
2023/01/11 03:22:07;;;;;;;4.07;1.10;;;;;;;8.68;88.20;100501.06;5027810;28;20210;-70
2023/01/11 03:24:44;;;;;;;7.93;1.70;;;;;;;8.70;88.24;100495.63;5025762;28;20607;-68
2023/01/11 03:27:21;;;;;;;5.67;1.23;;;;;;;8.72;88.16;100486.56;5024421;28;20292;-72
2023/01/11 03:29:54;;;;;;;5.13;1.27;;;;;;;8.70;88.60;100487.72;5026852;28;20230;-71
2023/01/11 03:32:31;;;;;;;5.10;1.30;;;;;;;8.70;89.16;100485.06;5025539;28;20297;-69
2023/01/11 03:35:12;;;;;;;3.87;1.43;;;;;;;8.73;89.11;100479.47;5025568;28;20216;-71
2023/01/11 03:37:46;;;;;;;6.10;1.40;;;;;;;8.77;89.27;100479.09;5025372;28;20286;-71
2023/01/11 03:40:18;;;;;;;5.20;1.30;;;;;;;8.85;89.00;100473.13;5027609;28;20310;-68
2023/01/11 03:43:10;;;;;;;4.23;1.60;;;;;;;8.88;89.09;100471.00;5026908;28;20242;-68
2023/01/11 03:45:45;;;;;;;5.63;1.30;;;;;;;8.87;89.61;100464.09;5025405;28;20347;-72
2023/01/11 03:48:17;;;;;;;5.43;1.57;;;;;;;8.84;89.97;100458.22;5025940;28;20728;-70
2023/01/11 03:50:47;;;;;;;4.67;1.23;;;;;;;8.82;90.62;100455.69;5025474;28;20211;-71
2023/01/11 03:53:19;;;;;;;4.37;1.20;;;;;;;8.85;90.73;100449.31;5023953;28;20223;-69
2023/01/11 03:55:52;;;;;;;6.47;1.40;;;;;;;8.88;91.15;100454.34;5027388;28;20220;-68
2023/01/11 03:58:19;;;;;;;5.43;1.43;;;;;;;8.93;90.98;100445.00;5027072;28;20231;-70
2023/01/11 04:00:48;;;;;;;3.67;1.23;;;;;;;8.90;91.55;100453.22;5029305;28;20212;-69
2023/01/11 04:03:17;;;;;;;4.90;1.10;;;;;;;8.95;91.63;100440.44;5025990;28;20238;-69
2023/01/11 04:05:50;;;;;;;3.07;1.00;;;;;;;9.03;91.17;100451.16;5026463;28;20212;-71
2023/01/11 04:08:18;;;;;;;3.03;1.03;;;;;;;9.09;91.62;100447.09;5023632;28;20208;-70
2023/01/11 04:10:46;;;;;;;5.60;1.23;;;;;;;9.09;92.33;100439.16;5027410;28;20315;-70
2023/01/11 04:13:13;;;;;;;4.33;1.20;;;;;;;9.14;92.95;100439.59;5024241;28;20312;-69
2023/01/11 04:15:41;;;;;;;2.70;1.10;;;;;;;9.13;94.04;100432.63;5026269;28;20220;-70
2023/01/11 04:18:09;;;;;;;2.87;0.97;;;;;;;9.05;95.64;100419.28;5019601;28;21388;-72
2023/01/11 04:20:40;;;;;;;2.60;0.93;;;;;;;9.01;96.36;100423.16;5023222;28;20938;-69
2023/01/11 04:23:09;;;;;;;5.73;0.90;;;;;;;9.01;96.82;100429.28;5027893;28;20585;-71
2023/01/11 04:25:37;;;;;;;4.33;1.10;;;;;;;8.99;96.69;100412.72;5022207;28;20201;-69
2023/01/11 04:28:05;;;;;;;7.90;1.30;;;;;;;8.97;96.91;100411.19;5026125;28;20205;-71
2023/01/11 04:30:34;;;;;;;3.03;1.10;;;;;;;8.97;96.98;100408.56;5026770;28;20238;-71
2023/01/11 04:33:02;;;;;;;2.43;1.10;;;;;;;8.99;96.55;100403.94;5024830;28;20764;-70
2023/01/11 04:35:30;;;;;;;4.67;1.40;;;;;;;8.99;96.58;100390.72;5024866;28;20621;-71
2023/01/11 04:37:59;;;;;;;3.77;1.03;;;;;;;8.99;96.81;100399.47;5023428;28;20208;-69
2023/01/11 04:40:27;;;;;;;5.50;2.13;;;;;;;9.05;97.82;100403.41;5029774;28;20233;-68
2023/01/11 04:42:53;;;;;;;6.87;1.77;;;;;;;9.05;98.21;100395.47;5026444;28;20209;-68
2023/01/11 04:45:21;;;;;;;5.30;1.27;;;;;;;9.12;97.72;100398.38;5021048;28;20205;-68
2023/01/11 04:47:54;;;;;;;3.93;1.13;;;;;;;9.05;97.17;100388.38;5025249;28;20212;-71
2023/01/11 04:50:22;;;;;;;6.73;1.37;;;;;;;9.09;97.00;100396.00;5024240;28;20334;-69
2023/01/11 04:52:50;;;;;;;4.27;1.10;;;;;;;9.10;96.88;100395.03;5021987;28;20215;-60
2023/01/11 04:55:19;;;;;;;4.60;1.10;;;;;;;9.03;97.61;100392.13;5026152;28;20208;-61
2023/01/11 04:57:47;;;;;;;4.73;2.03;;;;;;;9.00;98.59;100390.56;5027935;28;20227;-59
2023/01/11 05:00:16;;;;;;;3.87;0.90;;;;;;;9.03;99.09;100397.41;5029815;28;20211;-60
2023/01/11 05:02:43;;;;;;;4.90;1.00;;;;;;;9.03;99.51;100400.06;5029438;28;20607;-60
2023/01/11 05:05:11;;;;;;;5.70;1.00;;;;;;;9.00;100.00;100395.03;5031162;28;20270;-61
2023/01/11 05:07:39;;;;;;;4.90;1.20;;;;;;;9.05;100.00;100398.09;5031276;28;20322;-61
2023/01/11 05:10:08;;;;;;;2.67;1.00;;;;;;;9.11;99.73;100392.25;5028514;28;20331;-61
2023/01/11 05:12:38;;;;;;;4.13;1.07;;;;;;;9.06;100.00;100395.28;5028076;28;20899;-61
2023/01/11 05:15:07;;;;;;;2.63;0.90;;;;;;;9.06;100.00;100389.16;5027907;28;20212;-62
2023/01/11 05:17:34;;;;;;;2.77;1.03;;;;;;;9.13;100.00;100385.00;5027961;28;20523;-60
2023/01/11 05:20:04;;;;;;;5.90;1.20;;;;;;;9.16;99.72;100392.66;5028225;28;20281;-60
2023/01/11 05:22:31;;;;;;;4.47;1.00;;;;;;;9.16;99.80;100392.66;5027529;28;20558;-60
2023/01/11 05:24:59;;;;;;;4.10;1.23;;;;;;;9.19;100.00;100381.78;5027572;28;20204;-61
2023/01/11 05:27:27;;;;;;;4.60;1.03;;;;;;;9.26;99.41;100380.25;5026670;28;20244;-60
2023/01/11 05:29:56;;;;;;;3.80;0.97;;;;;;;9.26;99.26;100372.31;5027793;28;20228;-60
2023/01/11 05:32:24;;;;;;;3.27;1.10;;;;;;;9.26;99.55;100374.13;5028400;28;20211;-60
2023/01/11 05:34:51;;;;;;;4.57;1.10;;;;;;;9.25;99.98;100373.28;5027251;28;20219;-60
2023/01/11 05:37:19;;;;;;;3.80;0.80;;;;;;;9.26;99.89;100364.38;5027735;28;20239;-60
2023/01/11 05:39:47;;;;;;;2.17;1.00;;;;;;;9.27;100.00;100370.50;5027768;28;20209;-61
2023/01/11 05:42:15;;;;;;;5.30;1.03;;;;;;;9.27;100.00;100368.69;5028637;28;20266;-60
2023/01/11 05:47:29;;;;;;;2.10;0.80;;;;;;;9.33;100.00;100361.97;5028159;28;20212;-61
2023/01/11 05:49:57;;;;;;;2.07;1.00;;;;;;;9.22;100.00;100363.00;5028779;28;20243;-61
2023/01/11 05:52:25;;;;;;;6.93;2.03;;;;;;;9.19;100.00;100368.56;5028681;28;20213;-61
2023/01/11 05:54:52;;;;;;;2.63;0.90;;;;;;;9.25;100.00;100357.41;5028226;28;20665;-61
2023/01/11 05:57:20;;;;;;;4.70;1.17;;;;;;;9.24;100.00;100350.44;5027429;28;20224;-60
2023/01/11 05:59:48;;;;;;;2.60;1.00;;;;;;;9.34;100.00;100353.91;5026457;28;20839;-60
2023/01/11 06:02:16;;;;;;;3.73;1.00;;;;;;;9.39;100.00;100351.69;5025286;28;20304;-60
2023/01/11 06:04:45;;;;;;;2.17;0.97;;;;;;;9.38;100.00;100346.53;5031071;28;20244;-61
2023/01/11 06:07:13;;;;;;;3.17;0.80;;;;;;;9.36;100.00;100341.38;5027154;28;20243;-60
2023/01/11 06:09:40;;;;;;;2.47;0.80;;;;;;;9.40;100.00;100345.41;5024694;28;20231;-61
2023/01/11 06:12:08;;;;;;;3.93;1.40;;;;;;;9.46;100.00;100337.88;5027974;28;20284;-62
2023/01/11 06:14:36;;;;;;;6.17;1.00;;;;;;;9.32;100.00;100336.53;5030006;28;20243;-61
2023/01/11 06:17:04;;;;;;;2.70;1.00;;;;;;;9.40;100.00;100332.19;5027046;28;20270;-61
2023/01/11 06:19:32;;;;;;;2.63;1.03;;;;;;;9.39;100.00;100317.28;5030697;28;20221;-61
2023/01/11 06:22:01;;;;;;;3.40;0.70;;;;;;;9.41;100.00;100320.59;5029334;28;20217;-60
2023/01/11 06:24:29;;;;;;;2.63;0.70;;;;;;;9.44;100.00;100314.19;5025160;28;20341;-60
2023/01/11 06:26:57;;;;;;;5.13;0.60;;;;;;;9.44;100.00;100312.38;5026144;28;20214;-61
2023/01/11 06:29:24;;;;;;;1.50;0.73;;;;;;;9.41;100.00;100315.28;5025631;28;20675;-60
2023/01/11 06:31:52;;;;;;;2.70;0.90;;;;;;;9.42;100.00;100308.19;5027225;28;20652;-60
2023/01/11 06:34:20;;;;;;;2.90;0.97;;;;;;;9.46;100.00;100301.66;5029296;28;20717;-61
2023/01/11 06:36:48;;;;;;;3.10;1.07;;;;;;;9.48;100.00;100296.22;5026635;28;20688;-61
2023/01/11 06:39:17;;;;;;;2.90;0.80;;;;;;;9.51;100.00;100293.25;5034757;28;20213;-61
2023/01/11 06:41:45;;;;;;;2.10;0.80;;;;;;;9.49;100.00;100301.38;5032579;28;20713;-61
2023/01/11 06:44:12;;;;;;;2.70;0.80;;;;;;;9.62;100.00;100296.56;5032348;28;20212;-61
2023/01/11 06:46:40;;;;;;;2.20;0.97;;;;;;;9.70;99.56;100293.19;5029203;28;20215;-61
2023/01/11 06:49:08;;;;;;;4.27;0.87;;;;;;;9.64;99.40;100299.06;5035067;28;20334;-61
2023/01/11 06:51:36;;;;;;;2.87;0.70;;;;;;;9.75;98.90;100294.44;5032682;28;20647;-61
2023/01/11 06:54:03;;;;;;;1.33;0.70;;;;;;;9.78;98.32;100286.16;5031783;28;20209;-60
2023/01/11 06:56:32;;;;;;;3.00;0.90;;;;;;;9.80;98.02;100297.44;5029532;28;20219;-61
2023/01/11 06:59:00;;;;;;;3.10;0.70;;;;;;;9.77;97.66;100288.97;5029574;28;20232;-61
2023/01/11 07:01:29;;;;;;;1.77;0.80;;;;;;;9.83;97.88;100288.38;5028919;28;20586;-61
2023/01/11 07:03:57;;;;;;;5.73;0.63;;;;;;;9.82;97.69;100278.78;5030039;28;20304;-62
2023/01/11 07:06:25;;;;;;;1.47;0.60;;;;;;;9.89;97.33;100286.94;5030019;28;20601;-61
2023/01/11 07:08:52;;;;;;;1.23;0.70;;;;;;;9.92;97.75;100289.31;5033573;28;20216;-59
2023/01/11 07:11:20;;;;;;;1.43;0.60;;;;;;;9.94;98.26;100284.72;5034605;28;20230;-60
2023/01/11 07:13:49;;;;;;;4.23;0.90;;;;;;;9.90;98.72;100285.97;5029682;28;20216;-60
2023/01/11 07:16:17;;;;;;;1.60;0.63;;;;;;;9.86;99.68;100284.59;5030202;28;20212;-59
2023/01/11 07:18:45;;;;;;;2.87;0.83;;;;;;;9.88;99.93;100286.13;5028460;28;20208;-59
2023/01/11 07:21:13;;;;;;;3.13;0.97;;;;;;;9.89;99.90;100281.66;5030775;28;20205;-60
2023/01/11 07:23:41;;;;;;;1.43;0.80;;;;;;;9.88;100.00;100274.69;5031550;28;20217;-60
2023/01/11 07:26:08;;;;;;;2.00;0.70;;;;;;;9.86;100.00;100282.78;5030203;28;20223;-60
2023/01/11 07:28:36;;;;;;;2.00;0.67;;;;;;;9.93;100.00;100280.41;5030341;28;20574;-60
2023/01/11 07:31:05;;;;;;;2.07;0.80;;;;;;;9.94;99.33;100280.22;5033008;28;20224;-60
2023/01/11 07:33:33;;;;;;;1.97;0.80;;;;;;;9.97;99.38;100287.88;5033084;28;20311;-60
2023/01/11 07:36:04;;;;;;;3.20;0.90;;;;;;;9.96;99.23;100277.44;5030568;28;20208;-60
2023/01/11 07:38:32;;;;;;;2.73;0.90;;;;;;;9.99;99.00;100285.09;5031835;28;20228;-60
2023/01/11 07:43:10;;;;;;;3.63;1.00;;;;;;;10.01;99.09;100289.25;5035529;28;20205;-60
2023/01/11 07:43:47;;;;;;;2.43;0.90;;;;;;;10.02;98.69;100293.59;5037400;28;20236;-61
2023/01/11 07:46:16;;;;;;;3.83;0.87;;;;;;;10.01;99.18;100297.22;5033827;28;20574;-61
2023/01/11 07:48:44;;;;;;;4.47;1.07;;;;;;;9.99;99.36;100293.88;5031800;28;20220;-61
2023/01/11 07:51:12;;;;;;;2.47;0.90;;;;;;;9.98;100.00;100288.72;5032371;28;20705;-60
2023/01/11 07:53:39;;;;;;;3.60;0.90;;;;;;;9.97;100.00;100301.13;5031343;28;20232;-60
2023/01/11 07:56:07;;;;;;;2.17;1.17;;;;;;;10.00;100.00;100292.06;5028340;28;20216;-60
2023/01/11 07:58:35;;;;;;;2.93;1.10;;;;;;;9.99;100.00;100293.03;5030129;28;20685;-60
2023/01/11 08:01:03;;;;;;;3.43;0.93;;;;;;;9.95;100.00;100303.06;5032674;28;20205;-60
2023/01/11 08:03:32;;;;;;;3.37;1.00;;;;;;;9.95;100.00;100292.47;5029837;28;20223;-61
2023/01/11 08:06:00;;;;;;;3.07;0.90;;;;;;;9.99;100.00;100295.69;5030405;28;20247;-61
2023/01/11 08:08:28;;;;;;;5.53;1.60;;;;;;;9.95;100.00;100297.78;5032138;28;20220;-60
2023/01/11 08:16:23;;;;;;;6.17;1.50;;;;;;;9.93;100.00;100294.47;5028753;28;20209;-61
2023/01/11 08:18:52;;;;;;;3.07;1.20;;;;;;;9.96;100.00;100294.16;5028879;28;20208;-61
2023/01/11 08:21:21;;;;;;;3.27;1.50;;;;;;;10.00;100.00;100295.53;5029410;28;20211;-60
2023/01/11 08:23:48;;;;;;;3.57;1.60;;;;;;;9.99;100.00;100291.22;5030206;28;20216;-61
2023/01/11 08:26:16;;;;;;;4.33;1.70;;;;;;;9.98;100.00;100292.19;5032600;28;20219;-61
2023/01/11 08:28:44;;;;;;;4.77;1.90;;;;;;;10.01;100.00;100288.44;5031276;28;20582;-61
2023/01/11 08:31:12;;;;;;;3.00;1.30;;;;;;;10.03;100.00;100283.78;5032925;28;20224;-61
2023/01/11 08:33:40;;;;;;;3.50;1.37;;;;;;;10.03;100.00;100289.91;5033285;28;20217;-61
2023/01/11 08:36:11;;;;;;;2.30;1.30;;;;;;;9.99;100.00;100288.56;5031858;28;20668;-61
2023/01/11 08:38:39;;;;;;;4.93;1.37;;;;;;;10.01;100.00;100291.06;5030567;28;20937;-61
2023/01/11 08:41:09;;;;;;;4.80;1.20;;;;;;;9.99;100.00;100288.56;5031658;28;20873;-62
2023/01/11 08:43:37;;;;;;;3.33;1.23;;;;;;;10.01;100.00;100291.91;5028508;28;20212;-60
2023/01/11 08:46:05;;;;;;;2.53;1.30;;;;;;;10.05;100.00;100297.72;5033100;28;20205;-61
2023/01/11 08:48:33;;;;;;;2.40;1.10;;;;;;;10.08;100.00;100290.31;5030545;28;20400;-61
2023/01/11 08:51:00;;;;;;;3.13;1.10;;;;;;;10.07;100.00;100290.47;5028650;28;20232;-60
2023/01/11 08:53:29;;;;;;;2.43;1.20;;;;;;;10.06;100.00;100294.94;5029277;28;20224;-61
2023/01/11 08:55:57;;;;;;;2.80;0.97;;;;;;;10.10;100.00;100295.47;5029645;28;20686;-61
2023/01/11 08:58:25;;;;;;;3.27;1.20;;;;;;;10.14;100.00;100292.38;5030031;28;20228;-61
2023/01/11 09:00:53;;;;;;;4.10;1.50;;;;;;;10.17;100.00;100300.06;5029657;28;20212;-59
2023/01/11 09:03:21;;;;;;;4.17;0.97;;;;;;;10.14;100.00;100300.31;5029382;28;20213;-60
2023/01/11 09:05:48;;;;;;;5.00;1.20;;;;;;;10.11;100.00;100311.22;5030219;28;20208;-61
2023/01/11 09:08:16;;;;;;;2.10;0.90;;;;;;;10.14;100.00;100297.66;5033278;28;20239;-60
2023/01/11 09:10:45;;;;;;;2.97;0.90;;;;;;;10.17;100.00;100307.16;5027770;28;20878;-59
2023/01/11 09:13:13;;;;;;;2.27;0.80;;;;;;;10.21;100.00;100307.69;5032191;28;20612;-60
2023/01/11 09:15:41;;;;;;;3.30;1.17;;;;;;;10.21;100.00;100307.69;5030486;28;20307;-60
2023/01/11 09:18:09;;;;;;;2.83;0.60;;;;;;;10.23;100.00;100300.44;5030303;28;20669;-60
2023/01/11 09:20:36;;;;;;;2.13;0.73;;;;;;;10.21;100.00;100308.53;5029487;28;20204;-60
2023/01/11 09:23:04;;;;;;;3.00;0.80;;;;;;;10.23;100.00;100303.09;5033307;28;20209;-61
2023/01/11 09:25:33;;;;;;;1.87;0.70;;;;;;;10.24;100.00;100305.59;5029149;28;20221;-61
2023/01/11 09:28:02;;;;;;;2.23;0.80;;;;;;;10.24;100.00;100310.88;5035255;28;20209;-60
2023/01/11 09:30:29;;;;;;;4.33;0.90;;;;;;;10.20;100.00;100308.72;5036431;28;20219;-61
2023/01/11 09:32:58;;;;;;;5.93;0.90;;;;;;;10.23;100.00;100305.72;5032030;28;20243;-61
2023/01/11 09:35:25;;;;;;;3.10;1.00;;;;;;;10.22;100.00;100315.50;5030447;28;20214;-61
2023/01/11 09:37:55;;;;;;;1.47;0.80;;;;;;;10.24;100.00;100313.53;5030694;28;20275;-61
2023/01/11 09:40:30;;;;;;;2.80;0.70;;;;;;;10.28;100.00;100314.09;5032002;28;20598;-60
2023/01/11 09:43:00;;;;;;;3.00;1.00;;;;;;;10.33;100.00;100315.28;5031538;28;20662;-61
2023/01/11 09:45:31;;;;;;;1.43;0.60;;;;;;;10.29;100.00;100315.75;5030295;28;20620;-59
2023/01/11 09:48:10;;;;;;;2.40;0.70;;;;;;;10.32;100.00;100315.44;5031883;28;20693;-60
2023/01/11 09:50:43;;;;;;;6.27;0.93;;;;;;;10.37;100.00;100308.72;5030669;28;20260;-61
2023/01/11 09:53:18;;;;;;;3.87;1.27;;;;;;;10.35;100.00;100315.97;5028927;28;20222;-60
2023/01/11 09:55:50;;;;;;;2.67;1.00;;;;;;;10.37;100.00;100319.31;5029771;28;20219;-60
2023/01/11 09:58:48;;;;;;;2.93;1.03;;;;;;;10.39;100.00;100316.50;5028865;28;20231;-59
2023/01/11 10:01:23;;;;;;;3.13;1.50;;;;;;;10.44;100.00;100317.72;5030820;28;20210;-62
2023/01/11 10:04:31;;;;;;;3.90;1.50;;;;;;;10.46;100.00;100322.88;5028781;28;20237;-60
2023/01/11 10:07:26;;;;;;;4.13;1.20;;;;;;;10.50;100.00;100321.59;5031343;28;20866;-60
2023/01/11 10:10:07;;;;;;;4.73;1.23;;;;;;;10.57;100.00;100322.63;5033255;28;20206;-60
2023/01/11 10:13:04;;;;;;;4.20;1.50;;;;;;;10.59;100.00;100327.78;5027648;28;20246;-60
2023/01/11 10:15:59;;;;;;;4.43;1.10;;;;;;;10.61;100.00;100326.66;5028749;28;20205;-61
2023/01/11 10:19:01;;;;;;;4.37;1.30;;;;;;;10.62;100.00;100317.72;5029679;28;20217;-60
2023/01/11 10:21:53;;;;;;;4.33;1.20;;;;;;;10.67;100.00;100320.75;5030667;28;20216;-61
2023/01/11 10:24:25;;;;;;;3.33;1.10;;;;;;;10.72;100.00;100321.16;5029229;28;20215;-60
2023/01/11 10:26:57;;;;;;;2.33;1.10;;;;;;;10.78;100.00;100328.47;5030412;28;20293;-60
2023/01/11 10:29:48;;;;;;;2.23;0.90;;;;;;;10.83;100.00;100331.50;5029545;28;20256;-61
2023/01/11 10:35:40;;;;;;;2.20;1.10;;;;;;;10.91;100.00;100342.16;5018273;28;20218;-61
2023/01/11 10:38:29;;;;;;;3.47;1.20;;;;;;;10.94;100.00;100339.22;5030796;28;20213;-61
2023/01/11 10:41:10;;;;;;;3.73;1.50;;;;;;;11.00;100.00;100344.88;5029078;28;20283;-60
2023/01/11 10:43:43;;;;;;;3.50;1.40;;;;;;;11.04;100.00;100351.56;5030801;28;20216;-61
2023/01/11 10:46:15;;;;;;;4.63;1.60;;;;;;;11.05;100.00;100356.72;5030708;28;20218;-60
2023/01/11 10:48:44;;;;;;;5.57;1.30;;;;;;;11.08;100.00;100366.22;5029449;28;20218;-60
2023/01/11 10:51:26;;;;;;;2.23;0.93;;;;;;;11.18;100.00;100358.97;5030941;28;20300;-61
2023/01/11 10:54:01;;;;;;;2.03;1.00;;;;;;;11.26;100.00;100359.84;5028349;28;20223;-60
2023/01/11 10:56:44;;;;;;;4.07;1.23;;;;;;;11.34;100.00;100353.78;5027445;28;20215;-60
2023/01/11 10:59:49;;;;;;;2.10;1.10;;;;;;;11.42;100.00;100353.84;5028503;28;20581;-60
2023/01/11 11:02:33;;;;;;;2.17;0.97;;;;;;;11.41;100.00;100351.34;5027612;28;20249;-60
2023/01/11 11:05:13;;;;;;;3.93;1.30;;;;;;;11.49;100.00;100354.03;5030381;28;20200;-61
2023/01/11 11:07:49;;;;;;;2.90;1.30;;;;;;;11.36;100.00;100343.81;5021179;28;20384;-60
2023/01/11 11:10:23;;;;;;;2.63;1.20;;;;;;;11.24;100.00;100335.31;5029956;28;20200;-60
2023/01/11 11:12:58;;;;;;;3.93;1.20;;;;;;;11.30;100.00;100328.53;5031030;28;20233;-60
2023/01/11 11:15:35;;;;;;;3.20;1.83;;;;;;;11.43;100.00;100339.59;5030004;28;20206;-60
2023/01/11 11:18:03;;;;;;;2.50;1.07;;;;;;;11.45;100.00;100334.94;5027675;28;20219;-60
2023/01/11 11:20:32;;;;;;;2.80;1.10;;;;;;;11.56;100.00;100329.34;5025917;28;20221;-59
2023/01/11 11:23:03;;;;;;;2.87;1.40;;;;;;;11.74;100.00;100325.78;5022924;28;20212;-59
2023/01/11 11:25:32;;;;;;;3.23;1.30;;;;;;;11.83;100.00;100331.00;5035003;28;20309;-60
2023/01/11 11:28:05;;;;;;;0.97;0.70;;;;;;;11.90;100.00;100320.56;5036720;28;20219;-61
2023/01/11 11:30:37;;;;;;;4.07;0.40;;;;;;;12.05;98.06;100318.97;5023475;28;20219;-61
2023/01/11 11:33:15;;;;;;;0.47;0.30;;;;;;;12.13;95.24;100311.03;5032956;28;20212;-61
2023/01/11 11:35:45;;;;;;;0.87;0.40;;;;;;;12.24;94.13;100308.06;5031120;28;20247;-60
2023/01/11 11:38:23;;;;;;;4.23;1.10;;;;;;;12.35;94.59;100305.09;5029711;28;20204;-61
2023/01/11 11:40:58;;;;;;;4.23;1.80;;;;;;;12.34;95.61;100303.44;5033505;28;21091;-61
2023/01/11 11:43:27;;;;;;;3.43;1.57;;;;;;;12.30;96.72;100307.44;5033835;28;20239;-60
2023/01/11 11:45:56;;;;;;;5.03;1.50;;;;;;;12.34;96.96;100303.44;5036975;28;20235;-60
2023/01/11 11:48:26;;;;;;;1.07;0.77;;;;;;;12.28;96.19;100308.56;5021632;28;20252;-61
2023/01/11 11:50:55;;;;;;;1.30;0.60;;;;;;;12.24;93.71;100309.88;5033742;28;20240;-60
2023/01/11 11:53:32;;;;;;;1.10;0.40;;;;;;;12.22;91.92;100303.91;5030887;28;20701;-60
2023/01/11 11:56:06;;;;;;;1.07;0.40;;;;;;;12.29;90.94;100311.06;5031938;28;20203;-60
2023/01/11 11:58:34;;;;;;;4.57;0.40;;;;;;;12.29;90.49;100310.25;5031702;28;20314;-60
2023/01/11 12:01:06;;;;;;;0.80;0.23;;;;;;;12.39;89.71;100309.09;5031635;28;20569;-60
2023/01/11 12:03:34;;;;;;;1.13;0.50;;;;;;;12.50;88.72;100312.41;5033674;28;20227;-61
2023/01/11 12:06:06;;;;;;;0.83;0.47;;;;;;;12.49;87.68;100311.59;5035608;28;20552;-61
2023/01/11 12:08:36;;;;;;;0.70;0.37;;;;;;;12.47;88.08;100310.09;5028447;28;20262;-60
2023/01/11 12:11:07;;;;;;;1.20;0.63;;;;;;;12.47;87.59;100318.09;5031975;28;20219;-61
2023/01/11 12:13:36;;;;;;;1.97;0.50;;;;;;;12.43;88.38;100326.38;5031158;28;20231;-61
2023/01/11 12:16:06;;;;;;;1.60;0.70;;;;;;;12.39;88.30;100311.75;5023634;28;20216;-60
2023/01/11 12:18:41;;;;;;;1.83;0.57;;;;;;;12.32;88.93;100316.03;5029231;28;20209;-60